Time,TemperatureF,DewpointF,PressureIn,WindDirection,WindDirectionDegrees,WindSpeedMPH,WindSpeedGustMPH,Humidity,HourlyPrecipIn,Conditions,Clouds,dailyrainin,SoftwareType,DateUTC
2013-11-15 00:00:00,31.6,18.1,30.32,NE,53,0.0,1.0,57,0.00,,,0.00,Wunderground v.1.15,2013-11-15 05:00:00,
2013-11-15 00:02:00,31.6,18.1,30.31,NE,53,0.0,2.0,57,0.00,,,0.00,Wunderground v.1.15,2013-11-15 05:02:00,
2013-11-15 00:04:00,31.6,18.1,30.31,NE,53,0.0,2.0,57,0.00,,,0.00,Wunderground v.1.15,2013-11-15 05:04:00,
2013-11-15 00:07:00,31.5,18.0,30.31,NE,53,0.0,2.0,57,0.00,,,0.00,Wunderground v.1.15,2013-11-15 05:07:00,
2013-11-15 00:12:00,31.3,17.8,30.31,NE,53,0.0,2.0,57,0.00,,,0.00,Wunderground v.1.15,2013-11-15 05:12:00,
2013-11-15 00:18:00,31.2,18.1,30.31,NE,53,0.0,2.0,58,0.00,,,0.00,Wunderground v.1.15,2013-11-15 05:18:00,
2013-11-15 00:24:00,30.9,17.8,30.31,NE,53,0.0,2.0,58,0.00,,,0.00,Wunderground v.1.15,2013-11-15 05:24:00,
2013-11-15 00:29:00,30.6,18.0,30.31,NE,53,0.0,2.0,59,0.00,,,0.00,Wunderground v.1.15,2013-11-15 05:29:00,
2013-11-15 00:32:00,30.4,18.2,30.31,NE,53,0.0,2.0,60,0.00,,,0.00,Wunderground v.1.15,2013-11-15 05:32:00,
2013-11-15 00:38:00,30.1,17.9,30.31,NE,53,0.0,2.0,60,0.00,,,0.00,Wunderground v.1.15,2013-11-15 05:38:00,
2013-11-15 00:44:00,29.5,18.8,30.31,NE,53,0.0,2.0,64,0.00,,,0.00,Wunderground v.1.15,2013-11-15 05:44:00,
2013-11-15 00:49:00,29.1,18.1,30.30,NE,53,0.0,2.0,63,0.00,,,0.00,Wunderground v.1.15,2013-11-15 05:49:00,
2013-11-15 00:55:00,28.8,18.1,30.30,NE,53,0.0,2.0,64,0.00,,,0.00,Wunderground v.1.15,2013-11-15 05:55:00,
2013-11-15 01:00:00,29.1,17.7,30.30,NE,53,0.0,2.0,62,0.00,,,0.00,Wunderground v.1.15,2013-11-15 06:00:00,
2013-11-15 01:06:00,29.4,17.6,30.30,NE,53,0.0,2.0,61,0.00,,,0.00,Wunderground v.1.15,2013-11-15 06:06:00,
2013-11-15 01:12:00,30.0,17.8,30.30,NE,53,0.0,2.0,60,0.00,,,0.00,Wunderground v.1.15,2013-11-15 06:12:00,
2013-11-15 01:18:00,30.4,17.8,30.28,NE,53,0.0,2.0,59,0.00,,,0.00,Wunderground v.1.15,2013-11-15 06:18:00,
2013-11-15 01:24:00,30.6,18.0,30.28,NE,53,0.0,2.0,59,0.00,,,0.00,Wunderground v.1.15,2013-11-15 06:24:00,
2013-11-15 01:29:00,30.3,18.1,30.28,NE,53,0.0,2.0,60,0.00,,,0.00,Wunderground v.1.15,2013-11-15 06:29:00,
2013-11-15 01:35:00,30.0,18.5,30.28,NE,53,0.0,2.0,62,0.00,,,0.00,Wunderground v.1.15,2013-11-15 06:35:00,
2013-11-15 01:40:00,29.8,17.6,30.28,NE,53,0.0,2.0,60,0.00,,,0.00,Wunderground v.1.15,2013-11-15 06:40:00,
2013-11-15 01:46:00,29.8,17.2,30.30,NE,53,0.0,2.0,59,0.00,,,0.00,Wunderground v.1.15,2013-11-15 06:46:00,
2013-11-15 01:52:00,29.8,17.2,30.30,NE,53,0.0,2.0,59,0.00,,,0.00,Wunderground v.1.15,2013-11-15 06:52:00,
2013-11-15 01:58:00,29.7,17.1,30.30,NE,53,0.0,2.0,59,0.00,,,0.00,Wunderground v.1.15,2013-11-15 06:58:00,
2013-11-15 02:04:00,29.5,16.9,30.30,NE,53,0.0,2.0,59,0.00,,,0.00,Wunderground v.1.15,2013-11-15 07:04:00,
2013-11-15 02:09:00,29.4,17.6,30.30,NE,53,1.0,2.0,61,0.00,,,0.00,Wunderground v.1.15,2013-11-15 07:09:00,
2013-11-15 02:15:00,29.4,17.2,30.30,NE,53,1.0,2.0,60,0.00,,,0.00,Wunderground v.1.15,2013-11-15 07:15:00,
2013-11-15 02:21:00,29.0,18.0,30.30,NNE,22,2.0,3.0,63,0.00,,,0.00,Wunderground v.1.15,2013-11-15 07:21:00,
2013-11-15 02:27:00,29.0,17.6,30.30,NNE,21,2.0,2.0,62,0.00,,,0.00,Wunderground v.1.15,2013-11-15 07:27:00,
2013-11-15 02:32:00,29.4,17.6,30.29,NNE,20,1.0,3.0,61,0.00,,,0.00,Wunderground v.1.15,2013-11-15 07:32:00,
2013-11-15 02:38:00,28.7,18.4,30.29,NNE,20,1.0,3.0,65,0.00,,,0.00,Wunderground v.1.15,2013-11-15 07:38:00,
2013-11-15 02:44:00,27.3,18.5,30.29,NNE,20,0.0,3.0,69,0.00,,,0.00,Wunderground v.1.15,2013-11-15 07:44:00,
2013-11-15 02:50:00,26.3,18.2,30.28,NNE,20,0.0,3.0,71,0.00,,,0.00,Wunderground v.1.15,2013-11-15 07:50:00,
2013-11-15 02:55:00,25.7,17.6,30.28,North,355,0.0,3.0,71,0.00,,,0.00,Wunderground v.1.15,2013-11-15 07:55:00,
2013-11-15 03:01:00,25.8,17.4,30.28,North,355,0.0,3.0,70,0.00,,,0.00,Wunderground v.1.15,2013-11-15 08:01:00,
2013-11-15 03:06:00,26.6,17.1,30.28,North,355,0.0,3.0,67,0.00,,,0.00,Wunderground v.1.15,2013-11-15 08:06:00,
2013-11-15 03:11:00,27.2,17.0,30.28,North,355,0.0,3.0,65,0.00,,,0.00,Wunderground v.1.15,2013-11-15 08:11:00,
2013-11-15 03:17:00,28.1,17.1,30.28,North,355,0.0,3.0,63,0.00,,,0.00,Wunderground v.1.15,2013-11-15 08:17:00,
2013-11-15 03:22:00,28.5,17.1,30.28,North,355,0.0,3.0,62,0.00,,,0.00,Wunderground v.1.15,2013-11-15 08:22:00,
2013-11-15 03:28:00,29.0,17.2,30.28,North,355,0.0,3.0,61,0.00,,,0.00,Wunderground v.1.15,2013-11-15 08:28:00,
2013-11-15 03:33:00,29.1,16.9,30.28,North,355,1.0,3.0,60,0.00,,,0.00,Wunderground v.1.15,2013-11-15 08:33:00,
2013-11-15 03:39:00,29.3,17.1,30.28,North,355,0.0,2.0,60,0.00,,,0.00,Wunderground v.1.15,2013-11-15 08:39:00,
2013-11-15 03:44:00,29.3,17.1,30.28,North,355,0.0,2.0,60,0.00,,,0.00,Wunderground v.1.15,2013-11-15 08:44:00,
2013-11-15 03:50:00,29.3,17.1,30.28,North,355,1.0,2.0,60,0.00,,,0.00,Wunderground v.1.15,2013-11-15 08:50:00,
2013-11-15 03:56:00,29.1,17.7,30.28,North,355,1.0,2.0,62,0.00,,,0.00,Wunderground v.1.15,2013-11-15 08:56:00,
2013-11-15 04:01:00,29.0,17.2,30.28,North,355,0.0,2.0,61,0.00,,,0.00,Wunderground v.1.15,2013-11-15 09:01:00,
2013-11-15 04:07:00,28.8,18.1,30.28,NNW,330,0.0,3.0,64,0.00,,,0.00,Wunderground v.1.15,2013-11-15 09:07:00,
2013-11-15 04:13:00,28.8,18.1,30.28,NNW,330,0.0,3.0,64,0.00,,,0.00,Wunderground v.1.15,2013-11-15 09:13:00,
2013-11-15 04:19:00,28.5,17.9,30.27,NNW,330,0.0,3.0,64,0.00,,,0.00,Wunderground v.1.15,2013-11-15 09:19:00,
2013-11-15 04:24:00,28.1,18.5,30.27,NNW,330,0.0,3.0,67,0.00,,,0.00,Wunderground v.1.15,2013-11-15 09:24:00,
2013-11-15 04:30:00,27.6,18.1,30.27,NNW,330,0.0,3.0,67,0.00,,,0.00,Wunderground v.1.15,2013-11-15 09:30:00,
2013-11-15 04:36:00,27.6,18.1,30.27,NNW,330,0.0,2.0,67,0.00,,,0.00,Wunderground v.1.15,2013-11-15 09:36:00,
2013-11-15 04:41:00,27.8,18.3,30.27,NNW,330,1.0,2.0,67,0.00,,,0.00,Wunderground v.1.15,2013-11-15 09:41:00,
2013-11-15 04:47:00,27.8,17.9,30.28,NNW,330,0.0,2.0,66,0.00,,,0.00,Wunderground v.1.15,2013-11-15 09:47:00,
2013-11-15 04:52:00,27.6,18.8,30.28,NNW,330,0.0,2.0,69,0.00,,,0.00,Wunderground v.1.15,2013-11-15 09:52:00,
2013-11-15 04:58:00,27.5,17.6,30.28,NNW,330,0.0,2.0,66,0.00,,,0.00,Wunderground v.1.15,2013-11-15 09:58:00,
2013-11-15 05:03:00,27.8,16.8,30.27,NNW,330,0.0,2.0,63,0.00,,,0.00,Wunderground v.1.15,2013-11-15 10:03:00,
2013-11-15 05:09:00,28.4,16.7,30.27,NNW,330,0.0,2.0,61,0.00,,,0.00,Wunderground v.1.15,2013-11-15 10:09:00,
2013-11-15 05:15:00,29.1,16.5,30.27,NNW,330,0.0,2.0,59,0.00,,,0.00,Wunderground v.1.15,2013-11-15 10:15:00,
2013-11-15 05:20:00,29.7,16.3,30.28,NNW,330,1.0,2.0,57,0.00,,,0.00,Wunderground v.1.15,2013-11-15 10:20:00,
2013-11-15 05:26:00,30.3,15.6,30.28,NNW,330,1.0,2.0,54,0.00,,,0.00,Wunderground v.1.15,2013-11-15 10:26:00,
2013-11-15 05:31:00,30.9,16.6,30.27,NNW,330,0.0,2.0,55,0.00,,,0.00,Wunderground v.1.15,2013-11-15 10:31:00,
2013-11-15 05:37:00,31.3,16.6,30.27,NNW,330,0.0,3.0,54,0.00,,,0.00,Wunderground v.1.15,2013-11-15 10:37:00,
2013-11-15 05:43:00,31.6,17.3,30.27,NNW,330,0.0,3.0,55,0.00,,,0.00,Wunderground v.1.15,2013-11-15 10:43:00,
2013-11-15 05:49:00,31.5,17.2,30.26,NNW,330,0.0,3.0,55,0.00,,,0.00,Wunderground v.1.15,2013-11-15 10:49:00,
2013-11-15 05:55:00,31.3,17.4,30.26,NNW,330,0.0,3.0,56,0.00,,,0.00,Wunderground v.1.15,2013-11-15 10:55:00,
2013-11-15 06:01:00,31.0,20.2,30.26,NNW,330,0.0,3.0,64,0.00,,,0.00,Wunderground v.1.15,2013-11-15 11:01:00,
2013-11-15 06:06:00,30.3,20.3,30.26,NNW,330,0.0,2.0,66,0.00,,,0.00,Wunderground v.1.15,2013-11-15 11:06:00,
2013-11-15 06:12:00,30.0,20.0,30.26,NNW,330,0.0,2.0,66,0.00,,,0.00,Wunderground v.1.15,2013-11-15 11:12:00,
2013-11-15 06:17:00,29.8,20.2,30.27,NNW,330,0.0,2.0,67,0.00,,,0.00,Wunderground v.1.15,2013-11-15 11:17:00,
2013-11-15 06:23:00,29.8,20.2,30.27,NNW,330,0.0,2.0,67,0.00,,,0.00,Wunderground v.1.15,2013-11-15 11:23:00,
2013-11-15 06:29:00,29.8,20.2,30.27,NNW,330,0.0,2.0,67,0.00,,,0.00,Wunderground v.1.15,2013-11-15 11:29:00,
2013-11-15 06:34:00,30.1,17.9,30.28,NNW,330,0.0,2.0,60,0.00,,,0.00,Wunderground v.1.15,2013-11-15 11:34:00,
2013-11-15 06:40:00,30.9,18.2,30.28,NNW,330,0.0,2.0,59,0.00,,,0.00,Wunderground v.1.15,2013-11-15 11:40:00,
2013-11-15 06:46:00,31.6,18.9,30.28,NNW,330,0.0,2.0,59,0.00,,,0.00,Wunderground v.1.15,2013-11-15 11:46:00,
2013-11-15 06:51:00,31.9,18.8,30.28,NNW,330,0.0,2.0,58,0.00,,,0.00,Wunderground v.1.15,2013-11-15 11:51:00,
2013-11-15 06:57:00,32.2,20.2,30.28,NNW,330,0.0,2.0,61,0.00,,,0.00,Wunderground v.1.15,2013-11-15 11:57:00,
2013-11-15 07:03:00,32.9,21.7,30.28,NNW,346,1.0,3.0,63,0.00,,,0.00,Wunderground v.1.15,2013-11-15 12:03:00,
2013-11-15 07:09:00,32.7,21.1,30.28,NNW,346,1.0,3.0,62,0.00,,,0.00,Wunderground v.1.15,2013-11-15 12:09:00,
2013-11-15 07:14:00,32.5,21.7,30.28,NNW,346,0.0,3.0,64,0.00,,,0.00,Wunderground v.1.15,2013-11-15 12:14:00,
2013-11-15 07:20:00,32.5,20.9,30.29,NNW,346,0.0,3.0,62,0.00,,,0.00,Wunderground v.1.15,2013-11-15 12:20:00,
2013-11-15 07:25:00,32.7,21.9,30.29,NNW,346,0.0,3.0,64,0.00,,,0.00,Wunderground v.1.15,2013-11-15 12:25:00,
2013-11-15 07:31:00,32.7,22.2,30.29,NNW,346,0.0,3.0,65,0.00,,,0.00,Wunderground v.1.15,2013-11-15 12:31:00,
2013-11-15 07:36:00,32.8,22.0,30.29,West,262,0.0,1.0,64,0.00,,,0.00,Wunderground v.1.15,2013-11-15 12:36:00,
2013-11-15 07:42:00,32.9,22.4,30.29,West,267,0.0,1.0,65,0.00,,,0.00,Wunderground v.1.15,2013-11-15 12:42:00,
2013-11-15 07:48:00,33.1,22.2,30.29,NE,51,0.0,1.0,64,0.00,,,0.00,Wunderground v.1.15,2013-11-15 12:48:00,
2013-11-15 07:54:00,33.2,22.3,30.29,NE,51,0.0,1.0,64,0.00,,,0.00,Wunderground v.1.15,2013-11-15 12:54:00,
2013-11-15 08:00:00,33.4,22.5,30.29,NE,51,0.0,1.0,64,0.00,,,0.00,Wunderground v.1.15,2013-11-15 13:00:00,
2013-11-15 08:05:00,33.7,22.8,30.29,NE,51,0.0,3.0,64,0.00,,,0.00,Wunderground v.1.15,2013-11-15 13:05:00,
2013-11-15 08:11:00,34.3,21.4,30.29,NE,51,0.0,3.0,59,0.00,,,0.00,Wunderground v.1.15,2013-11-15 13:11:00,
2013-11-15 08:16:00,35.2,24.6,30.28,NE,50,0.0,3.0,65,0.00,,,0.00,Wunderground v.1.15,2013-11-15 13:16:00,
2013-11-15 08:22:00,35.8,24.0,30.28,NE,50,0.0,3.0,62,0.00,,,0.00,Wunderground v.1.15,2013-11-15 13:22:00,
2013-11-15 08:27:00,36.2,22.0,30.28,NE,50,0.0,3.0,56,0.00,,,0.00,Wunderground v.1.15,2013-11-15 13:27:00,
2013-11-15 08:33:00,37.8,21.7,30.28,NE,51,0.0,3.0,52,0.00,,,0.00,Wunderground v.1.15,2013-11-15 13:33:00,
2013-11-15 08:39:00,38.9,18.3,30.28,NE,52,1.0,7.0,43,0.00,,,0.00,Wunderground v.1.15,2013-11-15 13:39:00,
2013-11-15 08:45:00,39.8,19.6,30.28,NE,52,1.0,3.0,44,0.00,,,0.00,Wunderground v.1.15,2013-11-15 13:45:00,
2013-11-15 08:51:00,40.3,18.4,30.28,NE,52,0.0,3.0,41,0.00,,,0.00,Wunderground v.1.15,2013-11-15 13:51:00,
2013-11-15 08:56:00,40.6,18.1,30.28,NNE,32,1.0,3.0,40,0.00,,,0.00,Wunderground v.1.15,2013-11-15 13:56:00,
2013-11-15 09:02:00,41.1,19.2,30.27,NE,39,1.0,3.0,41,0.00,,,0.00,Wunderground v.1.15,2013-11-15 14:02:00,
2013-11-15 09:07:00,41.2,19.2,30.27,NE,43,1.0,7.0,41,0.00,,,0.00,Wunderground v.1.15,2013-11-15 14:07:00,
2013-11-15 09:12:00,41.6,19.0,30.27,NE,43,1.0,7.0,40,0.00,,,0.00,Wunderground v.1.15,2013-11-15 14:12:00,
2013-11-15 09:18:00,42.2,19.6,30.27,NE,43,1.0,7.0,40,0.00,,,0.00,Wunderground v.1.15,2013-11-15 14:18:00,
2013-11-15 09:23:00,42.8,18.9,30.27,NE,47,1.0,7.0,38,0.00,,,0.00,Wunderground v.1.15,2013-11-15 14:23:00,
2013-11-15 09:29:00,43.5,20.2,30.27,NE,40,1.0,7.0,39,0.00,,,0.00,Wunderground v.1.15,2013-11-15 14:29:00,
2013-11-15 09:34:00,43.8,22.2,30.26,South,171,1.0,1.0,42,0.00,,,0.00,Wunderground v.1.15,2013-11-15 14:34:00,
2013-11-15 09:40:00,43.8,22.7,30.26,South,177,0.0,5.0,43,0.00,,,0.00,Wunderground v.1.15,2013-11-15 14:40:00,
2013-11-15 09:45:00,43.1,22.6,30.26,South,177,0.0,5.0,44,0.00,,,0.00,Wunderground v.1.15,2013-11-15 14:45:00,
2013-11-15 09:51:00,43.1,22.6,30.26,ENE,65,0.0,5.0,44,0.00,,,0.00,Wunderground v.1.15,2013-11-15 14:51:00,
2013-11-15 09:56:00,42.8,19.5,30.26,SSE,153,1.0,5.0,39,0.00,,,0.00,Wunderground v.1.15,2013-11-15 14:56:00,
2013-11-15 10:02:00,42.9,21.4,30.27,NE,51,1.0,5.0,42,0.00,,,0.00,Wunderground v.1.15,2013-11-15 15:02:00,
2013-11-15 10:07:00,43.3,21.1,30.27,NE,53,1.0,7.0,41,0.00,,,0.00,Wunderground v.1.15,2013-11-15 15:07:00,
2013-11-15 10:13:00,43.5,21.9,30.27,ENE,71,1.0,7.0,42,0.00,,,0.00,Wunderground v.1.15,2013-11-15 15:13:00,
2013-11-15 10:18:00,43.8,22.2,30.26,ENE,69,1.0,7.0,42,0.00,,,0.00,Wunderground v.1.15,2013-11-15 15:18:00,
2013-11-15 10:24:00,44.2,23.1,30.26,ENE,57,1.0,7.0,43,0.00,,,0.00,Wunderground v.1.15,2013-11-15 15:24:00,
2013-11-15 10:30:00,44.6,22.3,30.26,SE,129,1.0,7.0,41,0.00,,,0.00,Wunderground v.1.15,2013-11-15 15:30:00,
2013-11-15 10:36:00,44.6,22.9,30.26,NE,53,1.0,5.0,42,0.00,,,0.00,Wunderground v.1.15,2013-11-15 15:36:00,
2013-11-15 10:42:00,44.9,23.7,30.26,NE,53,0.0,5.0,43,0.00,,,0.00,Wunderground v.1.15,2013-11-15 15:42:00,
2013-11-15 10:48:00,45.1,23.9,30.26,ENE,77,0.0,5.0,43,0.00,,,0.00,Wunderground v.1.15,2013-11-15 15:48:00,
2013-11-15 10:53:00,45.4,24.2,30.26,East,86,0.0,5.0,43,0.00,,,0.00,Wunderground v.1.15,2013-11-15 15:53:00,
2013-11-15 10:59:00,45.7,24.5,30.26,East,86,0.0,5.0,43,0.00,,,0.00,Wunderground v.1.15,2013-11-15 15:59:00,
2013-11-15 11:05:00,45.8,24.5,30.25,East,86,0.0,5.0,43,0.00,,,0.00,Wunderground v.1.15,2013-11-15 16:05:00,
2013-11-15 11:10:00,45.7,24.5,30.25,NNE,30,1.0,5.0,43,0.00,,,0.00,Wunderground v.1.15,2013-11-15 16:10:00,
2013-11-15 11:15:00,45.4,23.6,30.25,NE,49,1.0,5.0,42,0.00,,,0.00,Wunderground v.1.15,2013-11-15 16:15:00,
2013-11-15 11:21:00,45.4,24.2,30.24,NE,55,1.0,5.0,43,0.00,,,0.00,Wunderground v.1.15,2013-11-15 16:21:00,
2013-11-15 11:26:00,45.5,24.8,30.24,NE,55,1.0,5.0,44,0.00,,,0.00,Wunderground v.1.15,2013-11-15 16:26:00,
2013-11-15 11:32:00,45.5,24.8,30.24,NE,41,0.0,5.0,44,0.00,,,0.00,Wunderground v.1.15,2013-11-15 16:32:00,
2013-11-15 11:37:00,45.4,24.2,30.24,ESE,121,0.0,5.0,43,0.00,,,0.00,Wunderground v.1.15,2013-11-15 16:37:00,
2013-11-15 11:43:00,45.2,24.6,30.24,NE,42,1.0,5.0,44,0.00,,,0.00,Wunderground v.1.15,2013-11-15 16:43:00,
2013-11-15 11:49:00,45.4,24.7,30.24,NE,42,1.0,5.0,44,0.00,,,0.00,Wunderground v.1.15,2013-11-15 16:49:00,
2013-11-15 11:54:00,45.4,24.7,30.24,NE,42,0.0,5.0,44,0.00,,,0.00,Wunderground v.1.15,2013-11-15 16:54:00,
2013-11-15 12:00:00,45.4,24.7,30.24,NE,42,0.0,5.0,44,0.00,,,0.00,Wunderground v.1.15,2013-11-15 17:00:00,
2013-11-15 12:05:00,45.4,24.2,30.23,NE,53,0.0,4.0,43,0.00,,,0.00,Wunderground v.1.15,2013-11-15 17:05:00,
2013-11-15 12:11:00,45.5,24.8,30.23,NE,53,0.0,4.0,44,0.00,,,0.00,Wunderground v.1.15,2013-11-15 17:11:00,
2013-11-15 12:17:00,45.8,26.2,30.22,NE,53,0.0,4.0,46,0.00,,,0.00,Wunderground v.1.15,2013-11-15 17:17:00,
2013-11-15 12:22:00,46.1,25.4,30.22,NE,55,0.0,4.0,44,0.00,,,0.00,Wunderground v.1.15,2013-11-15 17:22:00,
2013-11-15 12:28:00,46.2,25.5,30.22,NE,55,0.0,4.0,44,0.00,,,0.00,Wunderground v.1.15,2013-11-15 17:28:00,
2013-11-15 12:33:00,46.2,25.5,30.21,NE,55,0.0,4.0,44,0.00,,,0.00,Wunderground v.1.15,2013-11-15 17:33:00,
2013-11-15 12:38:00,46.2,27.1,30.21,NE,55,0.0,3.0,47,0.00,,,0.00,Wunderground v.1.15,2013-11-15 17:38:00,
2013-11-15 12:44:00,46.2,26.5,30.21,East,95,0.0,3.0,46,0.00,,,0.00,Wunderground v.1.15,2013-11-15 17:44:00,
2013-11-15 12:50:00,46.4,28.3,30.20,SSE,155,0.0,3.0,49,0.00,,,0.00,Wunderground v.1.15,2013-11-15 17:50:00,
2013-11-15 12:56:00,46.5,30.3,30.20,SSE,153,0.0,3.0,53,0.00,,,0.00,Wunderground v.1.15,2013-11-15 17:56:00,
2013-11-15 13:01:00,46.5,31.6,30.20,SSE,150,1.0,3.0,56,0.00,,,0.00,Wunderground v.1.15,2013-11-15 18:01:00,
2013-11-15 13:06:00,46.5,33.8,30.20,SSE,150,0.0,4.0,61,0.00,,,0.00,Wunderground v.1.15,2013-11-15 18:06:00,
2013-11-15 13:12:00,46.5,35.4,30.20,SSE,150,0.0,4.0,65,0.00,,,0.00,Wunderground v.1.15,2013-11-15 18:12:00,
2013-11-15 13:17:00,46.4,36.8,30.19,SSE,150,0.0,4.0,69,0.00,,,0.00,Wunderground v.1.15,2013-11-15 18:17:00,
2013-11-15 13:23:00,46.1,36.5,30.19,SSE,150,0.0,4.0,69,0.00,,,0.00,Wunderground v.1.15,2013-11-15 18:23:00,
2013-11-15 13:29:00,46.1,36.9,30.19,SSE,150,0.0,4.0,70,0.00,,,0.00,Wunderground v.1.15,2013-11-15 18:29:00,
2013-11-15 13:35:00,46.2,37.3,30.19,SSE,150,0.0,1.0,71,0.00,,,0.00,Wunderground v.1.15,2013-11-15 18:35:00,
2013-11-15 13:40:00,46.2,38.0,30.19,SSE,150,0.0,1.0,73,0.00,,,0.00,Wunderground v.1.15,2013-11-15 18:40:00,
2013-11-15 13:46:00,46.4,38.2,30.19,SSE,150,0.0,1.0,73,0.00,,,0.00,Wunderground v.1.15,2013-11-15 18:46:00,
2013-11-15 13:51:00,46.2,38.7,30.19,SSE,150,0.0,1.0,75,0.00,,,0.00,Wunderground v.1.15,2013-11-15 18:51:00,
2013-11-15 13:57:00,46.1,39.6,30.19,SSE,150,0.0,1.0,78,0.00,,,0.00,Wunderground v.1.15,2013-11-15 18:57:00,
2013-11-15 14:02:00,45.8,40.0,30.19,SSE,150,0.0,2.0,80,0.00,,,0.00,Wunderground v.1.15,2013-11-15 19:02:00,
2013-11-15 14:08:00,45.5,40.9,30.19,SSE,150,0.0,2.0,84,0.00,,,0.00,Wunderground v.1.15,2013-11-15 19:08:00,
2013-11-15 14:13:00,45.1,40.9,30.19,SSE,150,0.0,2.0,85,0.00,,,0.01,Wunderground v.1.15,2013-11-15 19:13:00,
2013-11-15 14:19:00,44.9,41.6,30.19,SSE,150,0.0,2.0,88,0.00,,,0.01,Wunderground v.1.15,2013-11-15 19:19:00,
2013-11-15 14:24:00,44.6,41.6,30.19,SSE,150,0.0,2.0,89,0.00,,,0.01,Wunderground v.1.15,2013-11-15 19:24:00,
2013-11-15 14:30:00,44.5,41.5,30.19,SE,141,0.0,2.0,89,0.00,,,0.01,Wunderground v.1.15,2013-11-15 19:30:00,
2013-11-15 14:36:00,44.5,41.7,30.19,SE,141,0.0,2.0,90,0.00,,,0.01,Wunderground v.1.15,2013-11-15 19:36:00,
2013-11-15 14:41:00,44.6,42.1,30.19,SE,141,0.0,2.0,91,0.00,,,0.01,Wunderground v.1.15,2013-11-15 19:41:00,
2013-11-15 14:47:00,44.8,42.6,30.17,SE,141,0.0,2.0,92,0.00,,,0.02,Wunderground v.1.15,2013-11-15 19:47:00,
2013-11-15 14:52:00,45.2,43.0,30.17,SE,141,0.0,2.0,92,0.00,,,0.02,Wunderground v.1.15,2013-11-15 19:52:00,
2013-11-15 14:58:00,45.5,43.6,30.17,SE,141,0.0,2.0,93,0.00,,,0.02,Wunderground v.1.15,2013-11-15 19:58:00,
2013-11-15 15:04:00,45.7,43.8,30.17,SE,141,0.0,0.0,93,0.00,,,0.02,Wunderground v.1.15,2013-11-15 20:04:00,
2013-11-15 15:10:00,45.4,43.2,30.17,SE,143,0.0,0.0,92,0.00,,,0.02,Wunderground v.1.15,2013-11-15 20:10:00,
2013-11-15 15:15:00,45.2,43.3,30.17,SE,143,0.0,0.0,93,0.00,,,0.02,Wunderground v.1.15,2013-11-15 20:15:00,
2013-11-15 15:21:00,44.9,43.0,30.18,SE,143,0.0,0.0,93,0.00,,,0.02,Wunderground v.1.15,2013-11-15 20:21:00,
2013-11-15 15:26:00,44.9,43.0,30.18,SE,143,0.0,0.0,93,0.00,,,0.02,Wunderground v.1.15,2013-11-15 20:26:00,
2013-11-15 15:32:00,45.2,43.6,30.17,SE,143,0.0,0.0,94,0.00,,,0.02,Wunderground v.1.15,2013-11-15 20:32:00,
2013-11-15 15:37:00,45.4,43.8,30.17,East,84,0.0,1.0,94,0.00,,,0.02,Wunderground v.1.15,2013-11-15 20:37:00,
2013-11-15 15:43:00,45.4,44.1,30.17,East,84,0.0,1.0,95,0.00,,,0.02,Wunderground v.1.15,2013-11-15 20:43:00,
2013-11-15 15:49:00,45.5,44.2,30.17,NE,39,0.0,2.0,95,0.00,,,0.03,Wunderground v.1.15,2013-11-15 20:49:00,
2013-11-15 15:55:00,45.5,44.2,30.17,NE,39,0.0,1.0,95,0.00,,,0.03,Wunderground v.1.15,2013-11-15 20:55:00,
2013-11-15 16:00:00,45.5,44.2,30.17,NE,39,0.0,1.0,95,0.00,,,0.03,Wunderground v.1.15,2013-11-15 21:00:00,
2013-11-15 16:06:00,45.7,44.4,30.16,NE,39,0.0,3.0,95,0.00,,,0.03,Wunderground v.1.15,2013-11-15 21:06:00,
2013-11-15 16:11:00,45.7,44.4,30.16,NE,47,0.0,3.0,95,0.00,,,0.03,Wunderground v.1.15,2013-11-15 21:11:00,
2013-11-15 16:17:00,45.7,44.4,30.17,NE,48,0.0,3.0,95,0.00,,,0.03,Wunderground v.1.15,2013-11-15 21:17:00,
2013-11-15 16:23:00,45.7,44.4,30.17,NE,48,0.0,3.0,95,0.00,,,0.04,Wunderground v.1.15,2013-11-15 21:23:00,
2013-11-15 16:29:00,45.7,44.4,30.17,NE,53,0.0,3.0,95,0.00,,,0.04,Wunderground v.1.15,2013-11-15 21:29:00,
2013-11-15 16:34:00,45.5,44.2,30.17,NE,53,0.0,3.0,95,0.00,,,0.04,Wunderground v.1.15,2013-11-15 21:34:00,
2013-11-15 16:40:00,45.5,44.4,30.17,NE,53,0.0,3.0,96,0.00,,,0.04,Wunderground v.1.15,2013-11-15 21:40:00,
2013-11-15 16:45:00,45.4,44.3,30.17,NE,51,0.0,5.0,96,0.00,,,0.04,Wunderground v.1.15,2013-11-15 21:45:00,
2013-11-15 16:51:00,45.4,44.3,30.17,NE,56,1.0,5.0,96,0.00,,,0.04,Wunderground v.1.15,2013-11-15 21:51:00,
2013-11-15 16:56:00,45.4,44.3,30.17,NE,56,0.0,3.0,96,0.00,,,0.04,Wunderground v.1.15,2013-11-15 21:56:00,
2013-11-15 17:02:00,45.2,44.1,30.17,NE,56,0.0,3.0,96,0.00,,,0.04,Wunderground v.1.15,2013-11-15 22:02:00,
2013-11-15 17:08:00,45.2,44.1,30.17,NE,56,0.0,5.0,96,0.00,,,0.05,Wunderground v.1.15,2013-11-15 22:08:00,
2013-11-15 17:14:00,45.2,44.1,30.17,NE,56,0.0,5.0,96,0.00,,,0.05,Wunderground v.1.15,2013-11-15 22:14:00,
2013-11-15 17:19:00,45.2,44.1,30.17,NE,36,0.0,5.0,96,0.00,,,0.05,Wunderground v.1.15,2013-11-15 22:19:00,
2013-11-15 17:24:00,45.2,44.1,30.17,NE,36,0.0,5.0,96,0.00,,,0.05,Wunderground v.1.15,2013-11-15 22:24:00,
2013-11-15 17:30:00,45.2,44.1,30.17,NE,36,0.0,5.0,96,0.00,,,0.06,Wunderground v.1.15,2013-11-15 22:30:00,
2013-11-15 17:35:00,45.2,44.1,30.18,NE,36,0.0,4.0,96,0.00,,,0.06,Wunderground v.1.15,2013-11-15 22:35:00,
2013-11-15 17:41:00,45.2,44.1,30.18,NE,36,0.0,4.0,96,0.00,,,0.06,Wunderground v.1.15,2013-11-15 22:41:00,
2013-11-15 17:47:00,45.2,44.1,30.17,NE,36,0.0,4.0,96,0.00,,,0.06,Wunderground v.1.15,2013-11-15 22:47:00,
2013-11-15 17:53:00,45.2,44.1,30.17,NE,36,0.0,4.0,96,0.00,,,0.07,Wunderground v.1.15,2013-11-15 22:53:00,
2013-11-15 17:59:00,45.2,44.1,30.17,NE,36,0.0,4.0,96,0.00,,,0.07,Wunderground v.1.15,2013-11-15 22:59:00,
2013-11-15 18:05:00,45.2,44.1,30.18,NE,36,0.0,2.0,96,0.00,,,0.07,Wunderground v.1.15,2013-11-15 23:05:00,
2013-11-15 18:10:00,45.2,44.1,30.18,NE,36,0.0,2.0,96,0.00,,,0.07,Wunderground v.1.15,2013-11-15 23:10:00,
2013-11-15 18:16:00,45.2,44.1,30.17,NE,36,0.0,2.0,96,0.00,,,0.07,Wunderground v.1.15,2013-11-15 23:16:00,
2013-11-15 18:22:00,45.1,44.0,30.17,NE,36,0.0,2.0,96,0.00,,,0.07,Wunderground v.1.15,2013-11-15 23:22:00,
2013-11-15 18:27:00,44.9,43.8,30.17,East,89,0.0,2.0,96,0.00,,,0.07,Wunderground v.1.15,2013-11-15 23:27:00,
2013-11-15 18:33:00,44.9,43.8,30.17,East,89,0.0,2.0,96,0.00,,,0.08,Wunderground v.1.15,2013-11-15 23:33:00,
2013-11-15 18:38:00,44.9,44.1,30.17,East,82,0.0,2.0,97,0.00,,,0.08,Wunderground v.1.15,2013-11-15 23:38:00,
2013-11-15 18:44:00,44.9,44.1,30.17,East,82,0.0,2.0,97,0.00,,,0.08,Wunderground v.1.15,2013-11-15 23:44:00,
2013-11-15 18:49:00,44.9,44.1,30.17,East,82,0.0,2.0,97,0.00,,,0.08,Wunderground v.1.15,2013-11-15 23:49:00,
2013-11-15 18:55:00,44.9,44.1,30.17,East,82,0.0,2.0,97,0.00,,,0.08,Wunderground v.1.15,2013-11-15 23:55:00,
2013-11-15 19:01:00,44.9,44.1,30.17,East,82,0.0,2.0,97,0.00,,,0.08,Wunderground v.1.15,2013-11-16 00:01:00,
2013-11-15 19:07:00,44.9,44.1,30.17,East,82,0.0,2.0,97,0.00,,,0.08,Wunderground v.1.15,2013-11-16 00:07:00,
2013-11-15 19:12:00,44.9,44.1,30.17,East,82,0.0,2.0,97,0.00,,,0.08,Wunderground v.1.15,2013-11-16 00:12:00,
2013-11-15 19:18:00,44.9,44.1,30.18,East,82,0.0,2.0,97,0.00,,,0.08,Wunderground v.1.15,2013-11-16 00:18:00,
2013-11-15 19:23:00,45.1,44.3,30.18,East,82,0.0,2.0,97,0.00,,,0.08,Wunderground v.1.15,2013-11-16 00:23:00,
2013-11-15 19:29:00,45.1,44.3,30.18,East,83,0.0,2.0,97,0.00,,,0.08,Wunderground v.1.15,2013-11-16 00:29:00,
2013-11-15 19:34:00,44.9,44.1,30.19,East,83,0.0,2.0,97,0.00,,,0.08,Wunderground v.1.15,2013-11-16 00:34:00,
2013-11-15 19:40:00,44.9,44.1,30.19,East,83,0.0,2.0,97,0.00,,,0.08,Wunderground v.1.15,2013-11-16 00:40:00,
2013-11-15 19:45:00,44.8,44.0,30.19,East,83,0.0,2.0,97,0.00,,,0.08,Wunderground v.1.15,2013-11-16 00:45:00,
2013-11-15 19:51:00,44.8,44.0,30.19,East,83,0.0,2.0,97,0.00,,,0.08,Wunderground v.1.15,2013-11-16 00:51:00,
2013-11-15 19:56:00,44.8,44.0,30.19,East,83,0.0,2.0,97,0.00,,,0.08,Wunderground v.1.15,2013-11-16 00:56:00,
2013-11-15 20:02:00,44.8,44.0,30.19,East,83,0.0,2.0,97,0.00,,,0.09,Wunderground v.1.15,2013-11-16 01:02:00,
2013-11-15 20:07:00,44.8,44.0,30.19,East,83,0.0,2.0,97,0.00,,,0.09,Wunderground v.1.15,2013-11-16 01:07:00,
2013-11-15 20:13:00,44.8,44.0,30.19,East,83,0.0,2.0,97,0.00,,,0.09,Wunderground v.1.15,2013-11-16 01:13:00,
2013-11-15 20:19:00,44.8,44.0,30.16,East,83,0.0,2.0,97,0.00,,,0.09,Wunderground v.1.15,2013-11-16 01:19:00,
2013-11-15 20:25:00,44.6,43.8,30.16,ENE,61,0.0,2.0,97,0.00,,,0.09,Wunderground v.1.15,2013-11-16 01:25:00,
2013-11-15 20:31:00,44.6,43.8,30.16,NW,325,1.0,2.0,97,0.00,,,0.09,Wunderground v.1.15,2013-11-16 01:31:00,
2013-11-15 20:36:00,44.6,43.8,30.16,NW,325,1.0,4.0,97,0.00,,,0.09,Wunderground v.1.15,2013-11-16 01:36:00,
2013-11-15 20:42:00,44.5,43.7,30.16,NW,325,0.0,4.0,97,0.00,,,0.09,Wunderground v.1.15,2013-11-16 01:42:00,
2013-11-15 20:48:00,44.6,44.1,30.18,NW,325,0.0,4.0,98,0.00,,,0.09,Wunderground v.1.15,2013-11-16 01:48:00,
2013-11-15 20:54:00,44.5,44.0,30.18,NW,325,0.0,4.0,98,0.00,,,0.09,Wunderground v.1.15,2013-11-16 01:54:00,
2013-11-15 21:00:00,44.5,44.0,30.18,NW,325,0.0,4.0,98,0.00,,,0.09,Wunderground v.1.15,2013-11-16 02:00:00,
2013-11-15 21:05:00,44.6,44.1,30.18,NW,325,0.0,2.0,98,0.00,,,0.09,Wunderground v.1.15,2013-11-16 02:05:00,
2013-11-15 21:11:00,44.5,44.0,30.18,NW,325,0.0,2.0,98,0.00,,,0.09,Wunderground v.1.15,2013-11-16 02:11:00,
2013-11-15 21:17:00,44.5,44.0,30.18,NW,325,0.0,2.0,98,0.00,,,0.09,Wunderground v.1.15,2013-11-16 02:17:00,
2013-11-15 21:23:00,44.5,44.0,30.18,NW,325,0.0,2.0,98,0.00,,,0.09,Wunderground v.1.15,2013-11-16 02:23:00,
2013-11-15 21:28:00,44.3,43.8,30.18,NW,325,0.0,2.0,98,0.00,,,0.09,Wunderground v.1.15,2013-11-16 02:28:00,
2013-11-15 21:34:00,44.3,43.8,30.19,NW,325,0.0,0.0,98,0.00,,,0.09,Wunderground v.1.15,2013-11-16 02:34:00,
2013-11-15 21:39:00,44.3,43.8,30.19,North,355,0.0,2.0,98,0.00,,,0.09,Wunderground v.1.15,2013-11-16 02:39:00,
2013-11-15 21:45:00,44.3,43.8,30.19,North,355,0.0,0.0,98,0.00,,,0.09,Wunderground v.1.15,2013-11-16 02:45:00,
2013-11-15 21:51:00,44.3,43.8,30.20,North,355,0.0,0.0,98,0.00,,,0.09,Wunderground v.1.15,2013-11-16 02:51:00,
2013-11-15 21:57:00,44.3,43.8,30.20,North,355,0.0,0.0,98,0.00,,,0.09,Wunderground v.1.15,2013-11-16 02:57:00,
2013-11-15 22:03:00,44.5,44.0,30.19,North,355,0.0,3.0,98,0.00,,,0.09,Wunderground v.1.15,2013-11-16 03:03:00,
2013-11-15 22:09:00,44.5,44.0,30.19,North,355,0.0,3.0,98,0.00,,,0.09,Wunderground v.1.15,2013-11-16 03:09:00,
2013-11-15 22:15:00,44.5,44.0,30.19,North,355,0.0,3.0,98,0.00,,,0.09,Wunderground v.1.15,2013-11-16 03:15:00,
2013-11-15 22:21:00,44.3,43.8,30.19,North,5,0.0,3.0,98,0.00,,,0.09,Wunderground v.1.15,2013-11-16 03:21:00,
2013-11-15 22:27:00,44.3,43.8,30.19,NE,42,1.0,3.0,98,0.00,,,0.09,Wunderground v.1.15,2013-11-16 03:27:00,
2013-11-15 22:33:00,44.3,43.8,30.18,NE,54,1.0,5.0,98,0.00,,,0.09,Wunderground v.1.15,2013-11-16 03:33:00,
2013-11-15 22:39:00,44.3,43.8,30.18,NE,53,1.0,5.0,98,0.00,,,0.09,Wunderground v.1.15,2013-11-16 03:39:00,
2013-11-15 22:45:00,44.5,44.0,30.18,NE,53,0.0,5.0,98,0.00,,,0.09,Wunderground v.1.15,2013-11-16 03:45:00,
2013-11-15 22:51:00,44.5,44.0,30.19,NE,53,0.0,5.0,98,0.00,,,0.09,Wunderground v.1.15,2013-11-16 03:51:00,
2013-11-15 22:56:00,44.5,44.0,30.19,NE,53,0.0,5.0,98,0.00,,,0.09,Wunderground v.1.15,2013-11-16 03:56:00,
2013-11-15 23:02:00,44.5,44.0,30.19,NE,53,0.0,5.0,98,0.00,,,0.09,Wunderground v.1.15,2013-11-16 04:02:00,
2013-11-15 23:08:00,44.6,44.1,30.19,NE,53,0.0,4.0,98,0.00,,,0.09,Wunderground v.1.15,2013-11-16 04:08:00,
2013-11-15 23:14:00,44.8,44.3,30.19,SE,132,0.0,4.0,98,0.00,,,0.09,Wunderground v.1.15,2013-11-16 04:14:00,
2013-11-15 23:19:00,44.9,44.4,30.19,SE,132,0.0,4.0,98,0.00,,,0.09,Wunderground v.1.15,2013-11-16 04:19:00,
2013-11-15 23:25:00,45.1,44.6,30.19,NE,34,0.0,4.0,98,0.00,,,0.09,Wunderground v.1.15,2013-11-16 04:25:00,
2013-11-15 23:30:00,45.1,44.6,30.19,NE,34,0.0,4.0,98,0.00,,,0.09,Wunderground v.1.15,2013-11-16 04:30:00,
2013-11-15 23:36:00,45.1,44.6,30.19,East,96,0.0,4.0,98,0.00,,,0.09,Wunderground v.1.15,2013-11-16 04:36:00,
2013-11-15 23:42:00,45.1,44.6,30.19,ESE,102,0.0,4.0,98,0.00,,,0.09,Wunderground v.1.15,2013-11-16 04:42:00,
2013-11-15 23:47:00,45.1,44.6,30.18,ESE,102,0.0,4.0,98,0.00,,,0.09,Wunderground v.1.15,2013-11-16 04:47:00,
2013-11-15 23:53:00,45.1,44.6,30.18,ESE,102,0.0,4.0,98,0.00,,,0.09,Wunderground v.1.15,2013-11-16 04:53:00,
2013-11-15 23:59:00,45.1,44.6,30.18,ESE,102,0.0,4.0,98,0.00,,,0.09,Wunderground v.1.15,2013-11-16 04:59:00,